Time,TemperatureF,DewpointF,PressureIn,WindDirection,WindDirectionDegrees,WindSpeedMPH,WindSpeedGustMPH,Humidity,HourlyPrecipIn,Conditions,Clouds,dailyrainin,SoftwareType,DateUTC
2013-09-14 00:01:00,40.6,36.1,30.33,WSW,248,0.0,2.0,84,0.00,,,0.00,WUHU216HW,2013-09-14 04:01:00,
2013-09-14 00:02:00,40.6,36.4,30.33,WSW,248,2.0,2.0,85,0.00,,,0.00,WUHU216HW,2013-09-14 04:02:00,
2013-09-14 00:07:00,40.6,36.4,30.32,West,270,0.0,2.0,85,0.00,,,0.00,WUHU216HW,2013-09-14 04:07:00,
2013-09-14 00:12:00,40.6,36.4,30.32,West,270,0.0,2.0,85,0.00,,,0.00,WUHU216HW,2013-09-14 04:12:00,
2013-09-14 00:17:00,40.4,35.9,30.32,WSW,248,0.0,0.0,84,0.00,,,0.00,WUHU216HW,2013-09-14 04:17:00,
2013-09-14 00:22:00,40.2,36.0,30.32,West,270,0.0,0.0,85,0.00,,,0.00,WUHU216HW,2013-09-14 04:22:00,
2013-09-14 00:27:00,40.1,36.0,30.32,West,270,0.0,0.0,85,0.00,,,0.00,WUHU216HW,2013-09-14 04:27:00,
2013-09-14 00:32:00,40.1,35.9,30.31,West,270,0.0,0.0,85,0.00,,,0.00,WUHU216HW,2013-09-14 04:32:00,
2013-09-14 00:37:00,39.9,35.7,30.31,West,270,0.0,0.0,85,0.00,,,0.00,WUHU216HW,2013-09-14 04:37:00,
2013-09-14 00:42:00,40.1,35.9,30.32,WSW,248,0.6,0.6,85,0.00,,,0.00,WUHU216HW,2013-09-14 04:42:00,
2013-09-14 00:47:00,39.9,35.7,30.32,West,270,0.0,0.6,85,0.00,,,0.00,WUHU216HW,2013-09-14 04:47:00,
2013-09-14 00:52:00,39.9,35.7,30.32,WSW,248,0.0,0.6,85,0.00,,,0.00,WUHU216HW,2013-09-14 04:52:00,
2013-09-14 00:57:00,39.9,35.7,30.32,West,270,0.0,0.0,85,0.00,,,0.00,WUHU216HW,2013-09-14 04:57:00,
2013-09-14 01:02:00,39.9,35.7,30.32,West,270,0.0,0.0,85,0.00,,,0.00,WUHU216HW,2013-09-14 05:02:00,
2013-09-14 01:08:00,39.7,35.5,30.32,West,270,0.0,0.0,85,0.00,,,0.00,WUHU216HW,2013-09-14 05:08:00,
2013-09-14 01:13:00,39.7,35.5,30.32,West,270,0.0,0.0,85,0.00,,,0.00,WUHU216HW,2013-09-14 05:13:00,
2013-09-14 01:18:00,39.5,35.4,30.32,West,270,0.0,0.0,85,0.00,,,0.00,WUHU216HW,2013-09-14 05:18:00,
2013-09-14 01:23:00,39.5,35.4,30.32,WNW,293,0.0,0.0,85,0.00,,,0.00,WUHU216HW,2013-09-14 05:23:00,
2013-09-14 01:28:00,39.3,35.2,30.32,West,270,0.0,0.0,85,0.00,,,0.00,WUHU216HW,2013-09-14 05:28:00,
2013-09-14 01:33:00,39.3,35.2,30.32,West,270,0.0,2.4,85,0.00,,,0.00,WUHU216HW,2013-09-14 05:33:00,
2013-09-14 01:38:00,39.3,35.2,30.31,West,270,0.0,2.4,85,0.00,,,0.00,WUHU216HW,2013-09-14 05:38:00,
2013-09-14 01:43:00,39.0,34.8,30.32,West,270,0.0,0.0,85,0.00,,,0.00,WUHU216HW,2013-09-14 05:43:00,
2013-09-14 01:48:00,39.0,34.8,30.32,West,270,0.0,0.0,85,0.00,,,0.00,WUHU216HW,2013-09-14 05:48:00,
2013-09-14 01:53:00,39.0,35.1,30.32,WSW,248,2.0,2.0,86,0.00,,,0.00,WUHU216HW,2013-09-14 05:53:00,
2013-09-14 01:58:00,39.0,35.1,30.32,WSW,248,0.6,2.0,86,0.00,,,0.00,WUHU216HW,2013-09-14 05:58:00,
2013-09-14 02:03:00,39.0,35.1,30.32,West,270,0.0,2.6,86,0.00,,,0.00,WUHU216HW,2013-09-14 06:03:00,
2013-09-14 02:08:00,39.0,35.1,30.32,West,270,0.0,2.6,86,0.00,,,0.00,WUHU216HW,2013-09-14 06:08:00,
2013-09-14 02:13:00,39.0,35.1,30.33,WNW,293,0.0,0.0,86,0.00,,,0.00,WUHU216HW,2013-09-14 06:13:00,
2013-09-14 02:19:00,38.8,34.9,30.32,West,270,0.0,0.0,86,0.00,,,0.00,WUHU216HW,2013-09-14 06:19:00,
2013-09-14 02:24:00,38.8,34.9,30.32,West,270,0.0,0.0,86,0.00,,,0.00,WUHU216HW,2013-09-14 06:24:00,
2013-09-14 02:29:00,38.4,34.6,30.33,West,270,0.0,0.0,86,0.00,,,0.00,WUHU216HW,2013-09-14 06:29:00,
2013-09-14 02:34:00,38.4,34.6,30.33,West,270,0.0,2.0,86,0.00,,,0.00,WUHU216HW,2013-09-14 06:34:00,
2013-09-14 02:39:00,38.4,34.6,30.32,West,270,0.0,2.0,86,0.00,,,0.00,WUHU216HW,2013-09-14 06:39:00,
2013-09-14 02:44:00,38.4,34.6,30.32,WSW,248,2.4,2.4,86,0.00,,,0.00,WUHU216HW,2013-09-14 06:44:00,
2013-09-14 02:49:00,38.4,34.6,30.32,West,270,0.0,2.4,86,0.00,,,0.00,WUHU216HW,2013-09-14 06:49:00,
2013-09-14 02:54:00,38.3,34.7,30.32,West,270,0.0,0.0,87,0.00,,,0.00,WUHU216HW,2013-09-14 06:54:00,
2013-09-14 02:59:00,38.3,34.7,30.32,WNW,293,0.0,0.0,87,0.00,,,0.00,WUHU216HW,2013-09-14 06:59:00,
2013-09-14 03:04:00,38.3,34.7,30.32,WNW,293,0.0,0.0,87,0.00,,,0.00,WUHU216HW,2013-09-14 07:04:00,
2013-09-14 03:09:00,38.4,34.9,30.32,WNW,293,0.0,0.0,87,0.00,,,0.00,WUHU216HW,2013-09-14 07:09:00,
2013-09-14 03:14:00,38.4,34.9,30.32,West,270,0.0,0.0,87,0.00,,,0.00,WUHU216HW,2013-09-14 07:14:00,
2013-09-14 03:19:00,38.4,34.9,30.32,West,270,0.0,0.0,87,0.00,,,0.00,WUHU216HW,2013-09-14 07:19:00,
2013-09-14 03:24:00,38.6,35.0,30.32,West,270,0.0,2.2,87,0.00,,,0.00,WUHU216HW,2013-09-14 07:24:00,
2013-09-14 03:29:00,38.6,35.0,30.32,West,270,0.0,2.2,87,0.00,,,0.00,WUHU216HW,2013-09-14 07:29:00,
2013-09-14 03:34:00,38.6,35.0,30.32,WNW,293,1.5,1.5,87,0.00,,,0.00,WUHU216HW,2013-09-14 07:34:00,
2013-09-14 03:40:00,38.8,35.2,30.32,WNW,293,0.0,1.5,87,0.00,,,0.00,WUHU216HW,2013-09-14 07:40:00,
2013-09-14 03:45:00,38.6,35.0,30.33,West,270,0.0,1.3,87,0.00,,,0.00,WUHU216HW,2013-09-14 07:45:00,
2013-09-14 03:50:00,38.8,35.2,30.32,West,270,0.0,2.0,87,0.00,,,0.00,WUHU216HW,2013-09-14 07:50:00,
2013-09-14 03:55:00,38.8,35.2,30.33,West,270,0.0,2.0,87,0.00,,,0.00,WUHU216HW,2013-09-14 07:55:00,
2013-09-14 04:00:00,38.8,35.2,30.33,West,270,0.0,0.0,87,0.00,,,0.00,WUHU216HW,2013-09-14 08:00:00,
2013-09-14 04:05:00,38.8,35.2,30.33,WNW,293,0.0,0.0,87,0.00,,,0.00,WUHU216HW,2013-09-14 08:05:00,
2013-09-14 04:10:00,38.4,34.9,30.33,West,270,0.0,0.0,87,0.00,,,0.00,WUHU216HW,2013-09-14 08:10:00,
2013-09-14 04:15:00,38.4,34.9,30.32,West,270,0.0,0.0,87,0.00,,,0.00,WUHU216HW,2013-09-14 08:15:00,
2013-09-14 04:20:00,38.3,34.7,30.32,WNW,293,0.0,0.0,87,0.00,,,0.00,WUHU216HW,2013-09-14 08:20:00,
2013-09-14 04:25:00,38.1,34.5,30.33,West,270,0.0,0.0,87,0.00,,,0.00,WUHU216HW,2013-09-14 08:25:00,
2013-09-14 04:30:00,38.1,34.5,30.32,West,270,0.0,0.0,87,0.00,,,0.00,WUHU216HW,2013-09-14 08:30:00,
2013-09-14 04:35:00,37.9,34.3,30.33,WNW,293,0.0,2.0,87,0.00,,,0.00,WUHU216HW,2013-09-14 08:35:00,
2013-09-14 04:40:00,37.9,34.6,30.33,WNW,293,0.0,2.0,88,0.00,,,0.00,WUHU216HW,2013-09-14 08:40:00,
2013-09-14 04:45:00,37.7,34.4,30.33,WNW,293,0.0,0.0,88,0.00,,,0.00,WUHU216HW,2013-09-14 08:45:00,
2013-09-14 04:50:00,37.5,34.3,30.33,West,270,0.0,0.0,88,0.00,,,0.00,WUHU216HW,2013-09-14 08:50:00,
2013-09-14 04:55:00,37.5,34.3,30.33,WNW,293,0.0,0.0,88,0.00,,,0.00,WUHU216HW,2013-09-14 08:55:00,
2013-09-14 05:01:00,37.5,34.3,30.33,West,270,0.0,1.1,88,0.00,,,0.00,WUHU216HW,2013-09-14 09:01:00,
2013-09-14 05:06:00,37.5,34.3,30.33,WNW,293,0.0,1.1,88,0.00,,,0.00,WUHU216HW,2013-09-14 09:06:00,
2013-09-14 05:11:00,37.5,34.5,30.32,West,270,0.0,0.0,89,0.00,,,0.00,WUHU216HW,2013-09-14 09:11:00,
2013-09-14 05:16:00,37.5,34.5,30.32,West,270,0.0,0.6,89,0.00,,,0.00,WUHU216HW,2013-09-14 09:16:00,
2013-09-14 05:21:00,37.5,34.5,30.32,West,270,0.0,0.6,89,0.00,,,0.00,WUHU216HW,2013-09-14 09:21:00,
2013-09-14 05:26:00,37.5,34.5,30.32,WNW,293,0.0,0.0,89,0.00,,,0.00,WUHU216HW,2013-09-14 09:26:00,
2013-09-14 05:31:00,37.5,34.5,30.32,West,270,0.0,0.0,89,0.00,,,0.00,WUHU216HW,2013-09-14 09:31:00,
2013-09-14 05:36:00,37.5,34.5,30.33,West,270,0.0,0.0,89,0.00,,,0.00,WUHU216HW,2013-09-14 09:36:00,
2013-09-14 05:41:00,37.5,34.5,30.32,West,270,3.1,3.1,89,0.00,,,0.00,WUHU216HW,2013-09-14 09:41:00,
2013-09-14 05:46:00,37.5,34.5,30.32,West,270,0.0,3.1,89,0.00,,,0.00,WUHU216HW,2013-09-14 09:46:00,
2013-09-14 05:51:00,37.5,34.5,30.32,West,270,0.0,0.0,89,0.00,,,0.00,WUHU216HW,2013-09-14 09:51:00,
2013-09-14 05:56:00,37.5,34.5,30.32,WSW,248,0.0,0.0,89,0.00,,,0.00,WUHU216HW,2013-09-14 09:56:00,
2013-09-14 06:01:00,37.4,34.4,30.32,WSW,248,1.5,2.4,89,0.00,,,0.00,WUHU216HW,2013-09-14 10:01:00,
2013-09-14 06:06:00,37.4,34.4,30.33,WSW,248,0.0,2.4,89,0.00,,,0.00,WUHU216HW,2013-09-14 10:06:00,
2013-09-14 06:11:00,37.2,34.2,30.33,West,270,0.0,2.6,89,0.00,,,0.00,WUHU216HW,2013-09-14 10:11:00,
2013-09-14 06:16:00,37.2,34.2,30.33,WSW,248,1.3,2.6,89,0.00,,,0.00,WUHU216HW,2013-09-14 10:16:00,
2013-09-14 06:22:00,37.4,34.7,30.33,West,270,0.0,1.3,90,0.00,,,0.00,WUHU216HW,2013-09-14 10:22:00,
2013-09-14 06:27:00,37.2,34.5,30.32,West,270,0.0,1.3,90,0.00,,,0.00,WUHU216HW,2013-09-14 10:27:00,
2013-09-14 06:32:00,37.2,34.5,30.32,West,270,0.0,0.0,90,0.00,,,0.00,WUHU216HW,2013-09-14 10:32:00,
2013-09-14 06:37:00,37.2,34.5,30.32,WNW,293,0.0,2.4,90,0.00,,,0.00,WUHU216HW,2013-09-14 10:37:00,
2013-09-14 06:42:00,37.2,34.5,30.33,West,270,0.0,2.4,90,0.00,,,0.00,WUHU216HW,2013-09-14 10:42:00,
2013-09-14 06:47:00,37.0,34.3,30.33,West,270,0.0,1.5,90,0.00,,,0.00,WUHU216HW,2013-09-14 10:47:00,
2013-09-14 06:52:00,37.0,34.3,30.33,West,270,0.0,1.5,90,0.00,,,0.00,WUHU216HW,2013-09-14 10:52:00,
2013-09-14 06:57:00,37.2,34.5,30.33,West,270,0.0,0.0,90,0.00,,,0.00,WUHU216HW,2013-09-14 10:57:00,
2013-09-14 07:02:00,37.2,34.5,30.33,WNW,293,0.0,0.0,90,0.00,,,0.00,WUHU216HW,2013-09-14 11:02:00,
2013-09-14 07:07:00,37.0,34.3,30.33,West,270,0.0,0.0,90,0.00,,,0.00,WUHU216HW,2013-09-14 11:07:00,
2013-09-14 07:12:00,37.0,34.3,30.33,WNW,293,0.0,0.0,90,0.00,,,0.00,WUHU216HW,2013-09-14 11:12:00,
2013-09-14 07:17:00,37.0,34.3,30.33,WNW,293,0.0,0.0,90,0.00,,,0.00,WUHU216HW,2013-09-14 11:17:00,
2013-09-14 07:22:00,37.0,34.3,30.33,West,270,0.0,0.0,90,0.00,,,0.00,WUHU216HW,2013-09-14 11:22:00,
2013-09-14 07:27:00,37.0,34.6,30.33,West,270,0.0,0.0,91,0.00,,,0.00,WUHU216HW,2013-09-14 11:27:00,
2013-09-14 07:32:00,37.2,34.7,30.33,West,270,0.0,0.0,91,0.00,,,0.00,WUHU216HW,2013-09-14 11:32:00,
2013-09-14 07:37:00,37.7,35.3,30.33,West,270,0.0,0.0,91,0.00,,,0.00,WUHU216HW,2013-09-14 11:37:00,
2013-09-14 07:43:00,37.9,35.5,30.33,West,270,0.0,0.0,91,0.00,,,0.00,WUHU216HW,2013-09-14 11:43:00,
2013-09-14 07:48:00,38.1,35.6,30.34,WSW,248,0.0,0.0,91,0.00,,,0.00,WUHU216HW,2013-09-14 11:48:00,
2013-09-14 07:53:00,38.4,36.0,30.34,NW,315,0.0,0.0,91,0.00,,,0.00,WUHU216HW,2013-09-14 11:53:00,
2013-09-14 07:58:00,38.4,36.0,30.34,West,270,0.0,2.6,91,0.00,,,0.00,WUHU216HW,2013-09-14 11:58:00,
2013-09-14 08:03:00,39.0,36.5,30.34,NW,315,0.0,2.6,91,0.00,,,0.00,WUHU216HW,2013-09-14 12:03:00,
2013-09-14 08:08:00,39.3,36.9,30.34,West,270,0.0,0.0,91,0.00,,,0.00,WUHU216HW,2013-09-14 12:08:00,
2013-09-14 08:13:00,39.9,37.4,30.34,West,270,0.0,0.0,91,0.00,,,0.00,WUHU216HW,2013-09-14 12:13:00,
2013-09-14 08:18:00,40.2,37.8,30.34,WSW,248,0.0,0.0,91,0.00,,,0.00,WUHU216HW,2013-09-14 12:18:00,
2013-09-14 08:23:00,41.0,38.5,30.34,WSW,248,2.6,2.6,91,0.00,,,0.00,WUHU216HW,2013-09-14 12:23:00,
2013-09-14 08:28:00,41.5,39.1,30.34,West,270,0.0,2.6,91,0.00,,,0.00,WUHU216HW,2013-09-14 12:28:00,
2013-09-14 08:33:00,42.0,39.3,30.34,WSW,248,2.0,2.6,90,0.00,,,0.00,WUHU216HW,2013-09-14 12:33:00,
2013-09-14 08:38:00,42.9,39.9,30.34,WSW,248,0.0,2.0,89,0.00,,,0.00,WUHU216HW,2013-09-14 12:38:00,
2013-09-14 08:43:00,43.8,40.5,30.34,West,270,0.0,1.5,88,0.00,,,0.00,WUHU216HW,2013-09-14 12:43:00,
2013-09-14 08:48:00,44.9,41.6,30.34,West,270,0.0,0.0,88,0.00,,,0.00,WUHU216HW,2013-09-14 12:48:00,
2013-09-14 08:53:00,46.0,42.4,30.35,West,270,0.0,0.0,87,0.00,,,0.00,WUHU216HW,2013-09-14 12:53:00,
2013-09-14 08:58:00,47.3,43.0,30.34,WSW,248,0.0,0.0,85,0.00,,,0.00,WUHU216HW,2013-09-14 12:58:00,
2013-09-14 09:04:00,48.9,43.9,30.35,West,270,0.0,0.0,83,0.00,,,0.00,WUHU216HW,2013-09-14 13:04:00,
2013-09-14 09:09:00,50.1,44.8,30.34,SW,225,1.1,1.1,82,0.00,,,0.00,WUHU216HW,2013-09-14 13:09:00,
2013-09-14 09:14:00,52.3,46.4,30.35,WSW,248,0.0,1.1,80,0.00,,,0.00,WUHU216HW,2013-09-14 13:14:00,
2013-09-14 09:19:00,53.4,46.7,30.34,West,270,0.0,0.0,78,0.00,,,0.00,WUHU216HW,2013-09-14 13:19:00,
2013-09-14 09:24:00,54.6,46.8,30.35,WNW,293,0.0,1.5,75,0.00,,,0.00,WUHU216HW,2013-09-14 13:24:00,
2013-09-14 09:29:00,56.3,47.5,30.34,WNW,293,0.0,1.5,73,0.00,,,0.00,WUHU216HW,2013-09-14 13:29:00,
2013-09-14 09:34:00,57.3,47.2,30.35,SSW,203,0.0,0.0,69,0.00,,,0.00,WUHU216HW,2013-09-14 13:34:00,
2013-09-14 09:39:00,58.4,47.9,30.35,WSW,248,0.0,0.0,68,0.00,,,0.00,WUHU216HW,2013-09-14 13:39:00,
2013-09-14 09:44:00,59.5,47.3,30.35,West,270,0.0,0.0,65,0.00,,,0.00,WUHU216HW,2013-09-14 13:44:00,
2013-09-14 09:49:00,60.9,48.3,30.35,NW,315,0.0,0.0,63,0.00,,,0.00,WUHU216HW,2013-09-14 13:49:00,
2013-09-14 09:54:00,62.7,48.7,30.35,NNW,338,0.0,1.3,60,0.00,,,0.00,WUHU216HW,2013-09-14 13:54:00,
2013-09-14 09:59:00,63.6,49.0,30.35,NW,315,0.0,1.3,59,0.00,,,0.00,WUHU216HW,2013-09-14 13:59:00,
2013-09-14 10:04:00,64.5,49.3,30.34,WSW,248,1.7,1.7,58,0.00,,,0.00,WUHU216HW,2013-09-14 14:04:00,
2013-09-14 10:09:00,65.3,48.1,30.34,NNW,338,1.7,2.9,54,0.00,,,0.00,WUHU216HW,2013-09-14 14:09:00,
2013-09-14 10:15:00,66.0,48.3,30.35,NNE,23,0.6,2.9,53,0.00,,,0.00,WUHU216HW,2013-09-14 14:15:00,
2013-09-14 10:20:00,67.2,48.5,30.35,NNE,23,2.0,2.2,51,0.00,,,0.00,WUHU216HW,2013-09-14 14:20:00,
2013-09-14 10:25:00,68.7,48.7,30.35,SSW,203,0.0,2.4,49,0.00,,,0.00,WUHU216HW,2013-09-14 14:25:00,
2013-09-14 10:30:00,70.1,50.0,30.35,NE,45,0.0,2.4,49,0.00,,,0.00,WUHU216HW,2013-09-14 14:30:00,
2013-09-14 10:35:00,70.8,48.3,30.35,SE,135,0.0,0.0,45,0.00,,,0.00,WUHU216HW,2013-09-14 14:35:00,
2013-09-14 10:40:00,71.6,48.4,30.35,WNW,293,0.0,0.0,44,0.00,,,0.00,WUHU216HW,2013-09-14 14:40:00,
2013-09-14 10:45:00,72.3,47.8,30.35,WNW,293,0.0,1.3,42,0.00,,,0.00,WUHU216HW,2013-09-14 14:45:00,
2013-09-14 10:50:00,73.2,48.6,30.35,North,0,3.5,3.5,42,0.00,,,0.00,WUHU216HW,2013-09-14 14:50:00,
2013-09-14 10:55:00,74.1,48.3,30.35,NNW,338,0.0,3.5,40,0.00,,,0.00,WUHU216HW,2013-09-14 14:55:00,
2013-09-14 11:00:00,74.3,48.4,30.35,East,90,0.0,0.0,40,0.00,,,0.00,WUHU216HW,2013-09-14 15:00:00,
2013-09-14 11:05:00,75.7,49.0,30.35,SE,135,2.9,2.9,39,0.00,,,0.00,WUHU216HW,2013-09-14 15:05:00,
2013-09-14 11:10:00,75.3,47.1,30.35,NNE,23,0.0,2.9,37,0.00,,,0.00,WUHU216HW,2013-09-14 15:10:00,
2013-09-14 11:15:00,76.8,49.2,30.35,West,270,2.2,2.2,38,0.00,,,0.00,WUHU216HW,2013-09-14 15:15:00,
2013-09-14 11:20:00,77.9,48.6,30.35,NNW,338,0.0,3.1,36,0.00,,,0.00,WUHU216HW,2013-09-14 15:20:00,
2013-09-14 11:25:00,78.6,48.4,30.35,WSW,248,2.2,3.1,35,0.00,,,0.00,WUHU216HW,2013-09-14 15:25:00,
2013-09-14 11:31:00,79.7,47.9,30.34,WSW,248,1.5,4.4,33,0.00,,,0.00,WUHU216HW,2013-09-14 15:31:00,
2013-09-14 11:36:00,80.4,47.7,30.34,WNW,293,0.0,4.4,32,0.00,,,0.00,WUHU216HW,2013-09-14 15:36:00,
2013-09-14 11:41:00,80.7,48.0,30.33,NW,315,0.0,1.5,32,0.00,,,0.00,WUHU216HW,2013-09-14 15:41:00,
2013-09-14 11:46:00,81.3,47.7,30.34,North,0,3.8,3.8,31,0.00,,,0.00,WUHU216HW,2013-09-14 15:46:00,
2013-09-14 11:51:00,81.6,48.0,30.33,SSW,203,1.5,3.8,31,0.00,,,0.00,WUHU216HW,2013-09-14 15:51:00,
2013-09-14 11:56:00,83.1,48.4,30.33,South,180,3.8,3.8,30,0.00,,,0.00,WUHU216HW,2013-09-14 15:56:00,
2013-09-14 12:01:00,83.1,47.4,30.33,SSE,158,2.0,3.8,29,0.00,,,0.00,WUHU216HW,2013-09-14 16:01:00,
2013-09-14 12:06:00,83.1,48.4,30.33,WSW,248,3.8,3.8,30,0.00,,,0.00,WUHU216HW,2013-09-14 16:06:00,
2013-09-14 12:11:00,83.1,47.4,30.33,WSW,248,3.1,3.8,29,0.00,,,0.00,WUHU216HW,2013-09-14 16:11:00,
2013-09-14 12:16:00,83.8,47.0,30.32,NE,45,1.3,3.8,28,0.00,,,0.00,WUHU216HW,2013-09-14 16:16:00,
2013-09-14 12:21:00,82.9,47.2,30.32,North,0,1.5,1.5,29,0.00,,,0.00,WUHU216HW,2013-09-14 16:21:00,
2013-09-14 12:26:00,82.9,47.2,30.32,WSW,248,2.0,2.0,29,0.00,,,0.00,WUHU216HW,2013-09-14 16:26:00,
2013-09-14 12:31:00,83.4,47.7,30.32,NW,315,1.3,2.9,29,0.00,,,0.00,WUHU216HW,2013-09-14 16:31:00,
2013-09-14 12:36:00,85.2,48.2,30.32,North,0,2.0,2.9,28,0.00,,,0.00,WUHU216HW,2013-09-14 16:36:00,
2013-09-14 12:42:00,83.8,47.0,30.31,WNW,293,1.5,3.1,28,0.00,,,0.00,WUHU216HW,2013-09-14 16:42:00,
2013-09-14 12:47:00,82.9,47.2,30.31,WNW,293,0.0,3.1,29,0.00,,,0.00,WUHU216HW,2013-09-14 16:47:00,
2013-09-14 12:52:00,83.6,48.9,30.31,SSE,158,0.0,1.5,30,0.00,,,0.00,WUHU216HW,2013-09-14 16:52:00,
2013-09-14 12:57:00,85.2,48.2,30.31,North,0,4.0,4.0,28,0.00,,,0.00,WUHU216HW,2013-09-14 16:57:00,
2013-09-14 13:02:00,84.9,47.9,30.31,NNW,338,4.4,4.4,28,0.00,,,0.00,WUHU216HW,2013-09-14 17:02:00,
2013-09-14 13:07:00,84.0,47.1,30.31,NNE,23,2.0,4.4,28,0.00,,,0.00,WUHU216HW,2013-09-14 17:07:00,
2013-09-14 13:12:00,84.0,47.1,30.30,SSE,158,4.4,4.4,28,0.00,,,0.00,WUHU216HW,2013-09-14 17:12:00,
2013-09-14 13:17:00,84.7,48.8,30.30,NNE,23,0.0,4.4,29,0.00,,,0.00,WUHU216HW,2013-09-14 17:17:00,
2013-09-14 13:22:00,85.8,48.7,30.30,NW,315,0.0,4.4,28,0.00,,,0.00,WUHU216HW,2013-09-14 17:22:00,
2013-09-14 13:27:00,87.2,48.8,30.29,SE,135,0.8,2.2,27,0.00,,,0.00,WUHU216HW,2013-09-14 17:27:00,
2013-09-14 13:32:00,85.1,48.1,30.29,ESE,113,4.2,4.2,28,0.00,,,0.00,WUHU216HW,2013-09-14 17:32:00,
2013-09-14 13:37:00,83.3,48.6,30.29,ESE,113,3.5,4.2,30,0.00,,,0.00,WUHU216HW,2013-09-14 17:37:00,
2013-09-14 13:42:00,82.0,47.5,30.29,SE,135,3.8,4.2,30,0.00,,,0.00,WUHU216HW,2013-09-14 17:42:00,
2013-09-14 13:48:00,80.2,47.6,30.28,SE,135,4.6,5.3,32,0.00,,,0.00,WUHU216HW,2013-09-14 17:48:00,
2013-09-14 13:53:00,79.1,48.2,30.28,SE,135,6.2,6.9,34,0.00,,,0.00,WUHU216HW,2013-09-14 17:53:00,
2013-09-14 13:58:00,78.0,48.0,30.28,SE,135,8.5,8.5,35,0.00,,,0.00,WUHU216HW,2013-09-14 17:58:00,
2013-09-14 14:03:00,77.1,48.0,30.28,SE,135,8.0,8.7,36,0.00,,,0.00,WUHU216HW,2013-09-14 18:03:00,
2013-09-14 14:08:00,75.2,47.0,30.28,SE,135,9.1,11.1,37,0.00,,,0.00,WUHU216HW,2013-09-14 18:08:00,
2013-09-14 14:13:00,74.4,47.1,30.27,SSE,158,8.0,11.1,38,0.00,,,0.00,WUHU216HW,2013-09-14 18:13:00,
2013-09-14 14:18:00,74.8,48.9,30.27,SE,135,5.1,9.1,40,0.00,,,0.00,WUHU216HW,2013-09-14 18:18:00,
2013-09-14 14:23:00,75.7,49.7,30.26,SSE,158,9.6,9.6,40,0.00,,,0.00,WUHU216HW,2013-09-14 18:23:00,
2013-09-14 14:28:00,75.5,48.8,30.27,SE,135,10.7,10.7,39,0.00,,,0.00,WUHU216HW,2013-09-14 18:28:00,
2013-09-14 14:33:00,75.9,49.1,30.26,SSE,158,6.4,10.7,39,0.00,,,0.00,WUHU216HW,2013-09-14 18:33:00,
2013-09-14 14:38:00,76.8,49.2,30.26,SSE,158,9.1,9.1,38,0.00,,,0.00,WUHU216HW,2013-09-14 18:38:00,
2013-09-14 14:43:00,76.2,47.9,30.25,SSE,158,8.7,12.3,37,0.00,,,0.00,WUHU216HW,2013-09-14 18:43:00,
2013-09-14 14:49:00,75.0,49.1,30.25,SSE,158,14.3,17.4,40,0.00,,,0.00,WUHU216HW,2013-09-14 18:49:00,
2013-09-14 14:54:00,73.9,48.7,30.24,SSE,158,9.3,17.4,41,0.00,,,0.00,WUHU216HW,2013-09-14 18:54:00,
2013-09-14 14:59:00,75.0,48.3,30.24,SW,225,4.2,10.9,39,0.00,,,0.00,WUHU216HW,2013-09-14 18:59:00,
2013-09-14 15:04:00,78.6,50.0,30.24,SSE,158,2.9,10.2,37,0.00,,,0.00,WUHU216HW,2013-09-14 19:04:00,
2013-09-14 15:09:00,80.6,49.4,30.24,ESE,113,3.8,5.8,34,0.00,,,0.00,WUHU216HW,2013-09-14 19:09:00,
2013-09-14 15:14:00,79.3,46.8,30.24,SSE,158,7.6,10.7,32,0.00,,,0.00,WUHU216HW,2013-09-14 19:14:00,
2013-09-14 15:19:00,77.7,49.2,30.23,SSE,158,4.0,10.7,37,0.00,,,0.00,WUHU216HW,2013-09-14 19:19:00,
2013-09-14 15:24:00,77.7,47.7,30.23,South,180,4.2,7.6,35,0.00,,,0.00,WUHU216HW,2013-09-14 19:24:00,
2013-09-14 15:29:00,78.9,45.7,30.23,SE,135,8.9,8.9,31,0.00,,,0.00,WUHU216HW,2013-09-14 19:29:00,
2013-09-14 15:34:00,77.7,48.4,30.23,SSE,158,11.4,11.6,36,0.00,,,0.00,WUHU216HW,2013-09-14 19:34:00,
2013-09-14 15:39:00,78.4,46.7,30.23,East,90,2.2,11.6,33,0.00,,,0.00,WUHU216HW,2013-09-14 19:39:00,
2013-09-14 15:44:00,77.3,48.9,30.23,SSE,158,14.9,17.0,37,0.00,,,0.00,WUHU216HW,2013-09-14 19:44:00,
2013-09-14 15:49:00,75.9,49.1,30.23,SSE,158,7.3,17.0,39,0.00,,,0.00,WUHU216HW,2013-09-14 19:49:00,
2013-09-14 15:55:00,76.1,49.3,30.22,SSE,158,19.0,19.0,39,0.00,,,0.00,WUHU216HW,2013-09-14 19:55:00,
2013-09-14 16:00:00,73.4,48.2,30.22,SSE,158,15.6,19.0,41,0.00,,,0.00,WUHU216HW,2013-09-14 20:00:00,
2013-09-14 16:05:00,71.7,47.3,30.22,SSE,158,17.0,19.0,42,0.00,,,0.00,WUHU216HW,2013-09-14 20:05:00,
2013-09-14 16:10:00,68.9,47.7,30.23,SSE,158,9.1,19.0,47,0.00,,,0.00,WUHU216HW,2013-09-14 20:10:00,
2013-09-14 16:15:00,68.3,49.0,30.22,SSE,158,19.6,19.6,50,0.00,,,0.00,WUHU216HW,2013-09-14 20:15:00,
2013-09-14 16:20:00,67.6,48.9,30.22,SSE,158,8.9,19.6,51,0.00,,,0.00,WUHU216HW,2013-09-14 20:20:00,
2013-09-14 16:25:00,66.7,47.6,30.21,South,180,6.0,19.4,50,0.00,,,0.00,WUHU216HW,2013-09-14 20:25:00,
2013-09-14 16:30:00,66.7,46.4,30.22,SSE,158,2.6,12.0,48,0.00,,,0.00,WUHU216HW,2013-09-14 20:30:00,
2013-09-14 16:35:00,65.8,48.7,30.21,SSE,158,18.3,22.3,54,0.00,,,0.00,WUHU216HW,2013-09-14 20:35:00,
2013-09-14 16:40:00,65.3,47.1,30.21,South,180,3.5,22.3,52,0.00,,,0.00,WUHU216HW,2013-09-14 20:40:00,
2013-09-14 16:45:00,65.6,48.5,30.22,SSE,158,12.0,12.0,54,0.00,,,0.00,WUHU216HW,2013-09-14 20:45:00,
2013-09-14 16:50:00,65.4,47.8,30.22,SSW,203,11.1,12.0,53,0.00,,,0.00,WUHU216HW,2013-09-14 20:50:00,
2013-09-14 16:55:00,65.4,47.3,30.21,SSE,158,0.0,12.0,52,0.00,,,0.00,WUHU216HW,2013-09-14 20:55:00,
2013-09-14 17:00:00,66.9,47.1,30.22,NW,315,0.0,4.6,49,0.00,,,0.00,WUHU216HW,2013-09-14 21:00:00,
2013-09-14 17:06:00,67.8,46.2,30.21,SSE,158,3.5,3.5,46,0.00,,,0.00,WUHU216HW,2013-09-14 21:06:00,
2013-09-14 17:11:00,68.5,45.0,30.21,SSW,203,2.0,3.5,43,0.00,,,0.00,WUHU216HW,2013-09-14 21:11:00,
2013-09-14 17:16:00,68.1,44.7,30.21,SSW,203,0.0,4.9,43,0.00,,,0.00,WUHU216HW,2013-09-14 21:16:00,
2013-09-14 17:21:00,67.8,44.4,30.22,South,180,3.3,4.9,43,0.00,,,0.00,WUHU216HW,2013-09-14 21:21:00,
2013-09-14 17:26:00,69.0,45.5,30.21,NNW,338,0.0,3.3,43,0.00,,,0.00,WUHU216HW,2013-09-14 21:26:00,
2013-09-14 17:31:00,69.9,45.1,30.22,SSE,158,0.0,3.3,41,0.00,,,0.00,WUHU216HW,2013-09-14 21:31:00,
2013-09-14 17:36:00,69.2,45.1,30.22,WSW,248,3.5,3.5,42,0.00,,,0.00,WUHU216HW,2013-09-14 21:36:00,
2013-09-14 17:41:00,68.1,44.7,30.22,SSE,158,7.1,7.1,43,0.00,,,0.00,WUHU216HW,2013-09-14 21:41:00,
2013-09-14 17:46:00,66.7,44.6,30.21,South,180,1.5,7.1,45,0.00,,,0.00,WUHU216HW,2013-09-14 21:46:00,
2013-09-14 17:51:00,66.0,44.5,30.22,WSW,248,0.0,3.3,46,0.00,,,0.00,WUHU216HW,2013-09-14 21:51:00,
2013-09-14 17:56:00,65.4,44.6,30.22,South,180,4.6,4.6,47,0.00,,,0.00,WUHU216HW,2013-09-14 21:56:00,
2013-09-14 18:01:00,64.7,44.5,30.22,SSE,158,0.0,5.5,48,0.00,,,0.00,WUHU216HW,2013-09-14 22:01:00,
2013-09-14 18:06:00,64.5,44.3,30.22,SSE,158,0.0,8.5,48,0.00,,,0.00,WUHU216HW,2013-09-14 22:06:00,
2013-09-14 18:11:00,64.9,44.6,30.22,West,270,0.0,8.5,48,0.00,,,0.00,WUHU216HW,2013-09-14 22:11:00,
2013-09-14 18:16:00,64.9,44.6,30.22,SSE,158,4.4,4.4,48,0.00,,,0.00,WUHU216HW,2013-09-14 22:16:00,
2013-09-14 18:21:00,64.5,44.1,30.22,SSE,158,0.0,4.4,48,0.00,,,0.00,WUHU216HW,2013-09-14 22:21:00,
2013-09-14 18:27:00,64.0,43.8,30.22,SSW,203,0.0,4.0,48,0.00,,,0.00,WUHU216HW,2013-09-14 22:27:00,
2013-09-14 18:32:00,63.5,43.9,30.22,SSE,158,4.4,4.4,49,0.00,,,0.00,WUHU216HW,2013-09-14 22:32:00,
2013-09-14 18:37:00,63.1,43.6,30.22,West,270,0.0,4.4,49,0.00,,,0.00,WUHU216HW,2013-09-14 22:37:00,
2013-09-14 18:42:00,62.6,43.7,30.23,ENE,68,0.0,0.0,50,0.00,,,0.00,WUHU216HW,2013-09-14 22:42:00,
2013-09-14 18:47:00,62.0,43.2,30.22,West,270,0.0,0.0,50,0.00,,,0.00,WUHU216HW,2013-09-14 22:47:00,
2013-09-14 18:51:00,61.5,43.2,30.22,South,180,0.0,0.0,51,0.00,,,0.00,WUHU216HW,2013-09-14 22:51:00,
2013-09-14 18:56:00,61.1,43.3,30.22,South,180,0.0,0.0,52,0.00,,,0.00,WUHU216HW,2013-09-14 22:56:00,
2013-09-14 19:01:00,60.6,42.8,30.22,SW,225,0.0,0.0,52,0.00,,,0.00,WUHU216HW,2013-09-14 23:01:00,
2013-09-14 19:06:00,60.4,43.1,30.22,WNW,293,0.0,0.0,53,0.00,,,0.00,WUHU216HW,2013-09-14 23:06:00,
2013-09-14 19:11:00,59.9,43.1,30.22,West,270,0.0,0.0,54,0.00,,,0.00,WUHU216HW,2013-09-14 23:11:00,
2013-09-14 19:16:00,59.5,42.8,30.22,SSW,203,0.0,0.0,54,0.00,,,0.00,WUHU216HW,2013-09-14 23:16:00,
2013-09-14 19:21:00,58.8,42.6,30.22,WSW,248,0.0,0.0,55,0.00,,,0.00,WUHU216HW,2013-09-14 23:21:00,
2013-09-14 19:26:00,58.4,42.7,30.22,SW,225,0.0,0.0,56,0.00,,,0.00,WUHU216HW,2013-09-14 23:26:00,
2013-09-14 19:32:00,58.1,42.4,30.22,West,270,0.0,0.0,56,0.00,,,0.00,WUHU216HW,2013-09-14 23:32:00,
2013-09-14 19:37:00,57.5,42.4,30.22,SSW,203,0.0,0.0,57,0.00,,,0.00,WUHU216HW,2013-09-14 23:37:00,
2013-09-14 19:42:00,57.0,41.9,30.22,SSW,203,0.0,0.0,57,0.00,,,0.00,WUHU216HW,2013-09-14 23:42:00,
2013-09-14 19:47:00,56.8,42.2,30.22,WSW,248,0.0,0.0,58,0.00,,,0.00,WUHU216HW,2013-09-14 23:47:00,
2013-09-14 19:52:00,56.3,42.1,30.22,West,270,0.0,0.0,59,0.00,,,0.00,WUHU216HW,2013-09-14 23:52:00,
2013-09-14 19:57:00,55.9,42.2,30.22,West,270,0.0,0.0,60,0.00,,,0.00,WUHU216HW,2013-09-14 23:57:00,
2013-09-14 20:02:00,55.5,42.2,30.23,West,270,0.0,0.0,61,0.00,,,0.00,WUHU216HW,2013-09-15 00:02:00,
2013-09-14 20:07:00,55.0,42.2,30.22,WSW,248,0.0,0.0,62,0.00,,,0.00,WUHU216HW,2013-09-15 00:07:00,
2013-09-14 20:12:00,54.6,41.8,30.23,WSW,248,0.0,0.0,62,0.00,,,0.00,WUHU216HW,2013-09-15 00:12:00,
2013-09-14 20:17:00,54.6,42.2,30.22,West,270,0.0,0.0,63,0.00,,,0.00,WUHU216HW,2013-09-15 00:17:00,
2013-09-14 20:22:00,54.3,41.9,30.23,WSW,248,0.0,0.0,63,0.00,,,0.00,WUHU216HW,2013-09-15 00:22:00,
2013-09-14 20:27:00,54.3,42.3,30.23,WSW,248,0.0,0.0,64,0.00,,,0.00,WUHU216HW,2013-09-15 00:27:00,
2013-09-14 20:32:00,54.3,42.7,30.23,West,270,0.0,0.0,65,0.00,,,0.00,WUHU216HW,2013-09-15 00:32:00,
2013-09-14 20:37:00,54.3,42.7,30.23,West,270,0.0,0.0,65,0.00,,,0.00,WUHU216HW,2013-09-15 00:37:00,
2013-09-14 20:42:00,54.1,42.5,30.23,West,270,0.0,0.0,65,0.00,,,0.00,WUHU216HW,2013-09-15 00:42:00,
2013-09-14 20:47:00,53.9,42.4,30.23,West,270,0.0,0.0,65,0.00,,,0.00,WUHU216HW,2013-09-15 00:47:00,
2013-09-14 20:52:00,53.9,42.4,30.23,West,270,0.0,0.0,65,0.00,,,0.00,WUHU216HW,2013-09-15 00:52:00,
2013-09-14 20:58:00,53.9,42.4,30.23,West,270,0.0,0.0,65,0.00,,,0.00,WUHU216HW,2013-09-15 00:58:00,
2013-09-14 21:03:00,53.9,42.4,30.23,West,270,0.0,0.0,65,0.00,,,0.00,WUHU216HW,2013-09-15 01:03:00,
2013-09-14 21:08:00,53.9,42.8,30.23,West,270,0.0,0.0,66,0.00,,,0.00,WUHU216HW,2013-09-15 01:08:00,
2013-09-14 21:13:00,53.9,42.8,30.22,West,270,0.0,0.0,66,0.00,,,0.00,WUHU216HW,2013-09-15 01:13:00,
2013-09-14 21:18:00,53.7,42.6,30.22,West,270,0.0,0.0,66,0.00,,,0.00,WUHU216HW,2013-09-15 01:18:00,
2013-09-14 21:23:00,53.4,42.6,30.22,West,270,0.0,0.0,67,0.00,,,0.00,WUHU216HW,2013-09-15 01:23:00,
2013-09-14 21:28:00,53.4,42.6,30.22,SSW,203,0.0,0.0,67,0.00,,,0.00,WUHU216HW,2013-09-15 01:28:00,
2013-09-14 21:33:00,53.4,42.6,30.22,West,270,0.0,0.0,67,0.00,,,0.00,WUHU216HW,2013-09-15 01:33:00,
2013-09-14 21:38:00,53.4,42.6,30.22,NNW,338,0.0,0.0,67,0.00,,,0.00,WUHU216HW,2013-09-15 01:38:00,
2013-09-14 21:43:00,53.2,42.5,30.22,NNW,338,0.0,0.0,67,0.00,,,0.00,WUHU216HW,2013-09-15 01:43:00,
2013-09-14 21:48:00,53.0,42.3,30.23,WNW,293,0.0,0.0,67,0.00,,,0.00,WUHU216HW,2013-09-15 01:48:00,
2013-09-14 21:53:00,52.8,42.1,30.22,NW,315,0.0,0.0,67,0.00,,,0.00,WUHU216HW,2013-09-15 01:53:00,
2013-09-14 21:58:00,52.7,42.0,30.22,SW,225,1.1,1.1,67,0.00,,,0.00,WUHU216HW,2013-09-15 01:58:00,
2013-09-14 22:03:00,52.7,42.0,30.22,West,270,0.0,1.1,67,0.00,,,0.00,WUHU216HW,2013-09-15 02:03:00,
2013-09-14 22:08:00,52.3,41.6,30.22,West,270,0.0,1.1,67,0.00,,,0.00,WUHU216HW,2013-09-15 02:08:00,
2013-09-14 22:13:00,51.9,41.3,30.22,West,270,0.0,0.0,67,0.00,,,0.00,WUHU216HW,2013-09-15 02:13:00,
2013-09-14 22:19:00,51.6,41.0,30.23,West,270,0.0,0.0,67,0.00,,,0.00,WUHU216HW,2013-09-15 02:19:00,
2013-09-14 22:24:00,51.4,40.8,30.22,West,270,0.0,0.0,67,0.00,,,0.00,WUHU216HW,2013-09-15 02:24:00,
2013-09-14 22:29:00,51.0,40.8,30.23,West,270,0.0,0.0,68,0.00,,,0.00,WUHU216HW,2013-09-15 02:29:00,
2013-09-14 22:34:00,51.0,40.8,30.23,West,270,0.0,0.0,68,0.00,,,0.00,WUHU216HW,2013-09-15 02:34:00,
2013-09-14 22:39:00,50.9,41.1,30.23,West,270,0.0,0.0,69,0.00,,,0.00,WUHU216HW,2013-09-15 02:39:00,
2013-09-14 22:44:00,50.9,41.1,30.23,West,270,0.0,0.0,69,0.00,,,0.00,WUHU216HW,2013-09-15 02:44:00,
2013-09-14 22:49:00,50.7,40.9,30.23,West,270,0.0,0.0,69,0.00,,,0.00,WUHU216HW,2013-09-15 02:49:00,
2013-09-14 22:54:00,50.7,41.3,30.23,West,270,0.0,0.0,70,0.00,,,0.00,WUHU216HW,2013-09-15 02:54:00,
2013-09-14 22:59:00,50.7,41.3,30.22,West,270,0.0,0.0,70,0.00,,,0.00,WUHU216HW,2013-09-15 02:59:00,
2013-09-14 23:04:00,50.7,41.7,30.22,West,270,0.0,0.0,71,0.00,,,0.00,WUHU216HW,2013-09-15 03:04:00,
2013-09-14 23:09:00,50.9,41.8,30.23,West,270,0.0,0.0,71,0.00,,,0.00,WUHU216HW,2013-09-15 03:09:00,
2013-09-14 23:14:00,50.9,41.8,30.22,SW,225,0.0,0.0,71,0.00,,,0.00,WUHU216HW,2013-09-15 03:14:00,
2013-09-14 23:19:00,50.9,42.2,30.23,WSW,248,0.0,0.0,72,0.00,,,0.00,WUHU216HW,2013-09-15 03:19:00,
2013-09-14 23:24:00,51.0,42.4,30.23,WSW,248,0.0,0.0,72,0.00,,,0.00,WUHU216HW,2013-09-15 03:24:00,
2013-09-14 23:29:00,51.0,42.4,30.22,WSW,248,0.0,0.0,72,0.00,,,0.00,WUHU216HW,2013-09-15 03:29:00,
2013-09-14 23:35:00,51.0,42.4,30.22,WSW,248,0.0,0.0,72,0.00,,,0.00,WUHU216HW,2013-09-15 03:35:00,
2013-09-14 23:40:00,51.2,42.5,30.22,WSW,248,0.0,0.0,72,0.00,,,0.00,WUHU216HW,2013-09-15 03:40:00,
2013-09-14 23:45:00,51.2,42.5,30.22,SW,225,0.0,0.0,72,0.00,,,0.00,WUHU216HW,2013-09-15 03:45:00,
2013-09-14 23:50:00,51.4,42.7,30.22,NW,315,0.0,0.0,72,0.00,,,0.00,WUHU216HW,2013-09-15 03:50:00,
2013-09-14 23:55:00,51.4,42.7,30.22,West,270,0.0,0.0,72,0.00,,,0.00,WUHU216HW,2013-09-15 03:55:00,